GMMC/CAS METAR and TAF weather

Enter ICAO airport designator
Station Type Date Time Source
GMMC METAR 2020/07/06 19:00 UTC NOAA

GMMC 061900Z 06012KT CAVOK 27/19 Q1012


Station Type Date Time Source
GMMC Decoded METAR 2020/07/06 19:00 UTC NOAA

Casablanca, Morocco (GMMC) 33-34N 007-40W 62M
Jul 06, 2020 - 03:00 PM EDT / 2020.07.06 1900 UTC
Wind: from the ENE (060 degrees) at 14 MPH (12 KT):0
Visibility: greater than 7 mile(s):0
Temperature: 80 F (27 C)
Dew Point: 66 F (19 C)
Relative Humidity: 61%
Pressure (altimeter): 29.88 in. Hg (1012 hPa)
ob: GMMC 061900Z 06012KT CAVOK 27/19 Q1012
cycle: 19

Station Type Date Time Source
GMMC TAF 2016/05/22 17:00 UTC NOAA

FTMC31 GMMC 221700 RRA TAF LPPT 221700Z 2218/2324 34013KT CAVOK
BECMG 2221/2224 34007KT
BECMG 2310/2312 VRB03KT

Example: see airport list